createdAt,value
2023-06-04T05:38:43.373Z,61.76
2023-06-04T05:41:47.423Z,57.83
2023-06-04T05:44:51.182Z,60.10
2023-06-04T05:47:56.112Z,59.38
2023-06-04T05:50:59.268Z,64.99
2023-06-04T05:54:02.839Z,61.47
2023-06-04T05:57:06.792Z,62.98
2023-06-04T06:00:11.730Z,60.63
2023-06-04T06:03:17.783Z,60.70
2023-06-04T06:06:22.113Z,53.90
2023-06-04T06:09:25.217Z,55.56
2023-06-04T06:12:28.448Z,56.81
2023-06-04T06:15:34.336Z,51.90
2023-06-04T06:18:37.546Z,57.01
2023-06-04T06:21:40.413Z,57.08
2023-06-04T06:24:43.645Z,53.71
2023-06-04T06:27:46.440Z,56.51
2023-06-04T06:30:50.804Z,54.35
2023-06-04T06:33:53.550Z,52.34
2023-06-04T06:36:56.722Z,53.08
2023-06-04T06:39:59.431Z,55.92
2023-06-04T06:43:02.423Z,57.08
2023-06-04T06:46:05.098Z,55.75
2023-06-04T06:49:08.310Z,56.29
2023-06-04T06:52:11.145Z,60.39
2023-06-04T06:55:14.155Z,57.55
2023-06-04T06:58:17.011Z,58.26
2023-06-04T07:01:20.151Z,58.58
2023-06-04T07:04:23.440Z,57.19
2023-06-04T07:07:26.547Z,61.40
2023-06-04T07:10:30.449Z,59.95
2023-06-04T07:13:36.211Z,59.73
2023-06-04T07:16:39.075Z,57.39
2023-06-04T07:19:42.086Z,55.00
2023-06-04T07:22:44.766Z,53.79
2023-06-04T07:25:47.828Z,53.79
2023-06-04T07:28:50.845Z,53.88
2023-06-04T07:31:53.971Z,53.08
2023-06-04T07:34:56.740Z,51.39
2023-06-04T07:37:59.757Z,54.79
2023-06-04T07:41:02.410Z,55.40
2023-06-04T07:44:05.519Z,54.31
2023-06-04T07:47:08.904Z,55.57
2023-06-04T07:50:12.195Z,56.00
2023-06-04T07:53:14.932Z,55.54
2023-06-04T07:56:20.349Z,55.73
2023-06-04T07:59:24.315Z,57.61
2023-06-04T08:02:28.026Z,57.07
2023-06-04T08:05:32.815Z,57.91
2023-06-04T08:08:36.652Z,56.54
2023-06-04T08:11:42.134Z,60.52
2023-06-04T08:14:44.941Z,64.27
2023-06-04T08:17:48.108Z,62.57
2023-06-04T08:20:51.987Z,66.19
2023-06-04T08:23:58.236Z,65.43
2023-06-04T08:27:01.303Z,66.18
2023-06-04T08:30:06.263Z,72.37
2023-06-04T08:33:11.971Z,71.43
2023-06-04T08:36:17.238Z,64.44
2023-06-04T08:39:20.267Z,73.80
2023-06-04T08:42:39.584Z,69.74
2023-06-04T08:45:52.106Z,75.81
2023-06-04T08:48:59.713Z,73.55
2023-06-04T08:52:04.283Z,80.45
2023-06-04T08:55:13.213Z,84.65
2023-06-04T08:58:16.844Z,83.77
2023-06-04T09:01:20.190Z,80.96
2023-06-04T09:04:23.834Z,79.80
2023-06-04T09:07:27.470Z,75.59
2023-06-04T09:10:32.841Z,81.23
2023-06-04T09:13:37.218Z,75.00
2023-06-04T09:16:50.647Z,77.08
2023-06-04T09:19:53.709Z,69.94
2023-06-04T09:22:56.519Z,60.75
2023-06-04T09:26:08.869Z,66.09
2023-06-04T09:29:11.768Z,65.10
2023-06-04T09:32:14.874Z,58.71
2023-06-04T09:35:19.757Z,58.80
2023-06-04T09:38:23.412Z,55.44
2023-06-04T09:41:27.455Z,61.02
2023-06-04T09:44:31.450Z,55.70
2023-06-04T09:47:47.899Z,57.64
2023-06-04T09:50:51.064Z,59.15
2023-06-04T09:54:04.576Z,62.45
2023-06-04T09:57:18.972Z,60.00
2023-06-04T10:00:24.078Z,59.19
2023-06-04T10:14:58.454Z,53.27
2023-06-04T10:18:04.469Z,59.20
2023-06-04T10:21:09.308Z,53.58
2023-06-04T10:24:15.370Z,54.59
2023-06-04T10:27:19.258Z,58.91
2023-06-04T10:30:22.393Z,57.04
2023-06-04T10:33:25.682Z,54.98
2023-06-04T10:36:30.016Z,52.98
2023-06-04T10:39:33.931Z,60.65
2023-06-04T10:42:44.238Z,55.26
2023-06-04T10:45:47.246Z,57.43
2023-06-04T10:48:55.004Z,50.78
2023-06-04T10:51:58.469Z,51.67
2023-06-04T10:55:06.074Z,53.38
2023-06-04T10:58:09.286Z,51.62
2023-06-04T11:01:13.497Z,57.64
2023-06-04T11:04:24.683Z,51.67
2023-06-04T11:07:28.624Z,48.33
2023-06-04T11:10:36.949Z,57.74
2023-06-04T11:13:40.214Z,50.49
2023-06-04T11:16:43.146Z,52.58
2023-06-04T11:19:46.304Z,53.10
2023-06-04T11:23:00.972Z,45.95
2023-06-04T11:26:04.214Z,45.37
2023-06-04T11:29:13.105Z,48.20
2023-06-04T11:32:26.082Z,51.08
2023-06-04T11:35:29.078Z,51.01
2023-06-04T11:38:32.199Z,50.51
2023-06-04T11:41:36.617Z,46.75
2023-06-04T11:44:39.997Z,45.98
2023-06-04T11:47:46.991Z,46.78
2023-06-04T11:50:50.238Z,43.99
2023-06-04T11:53:53.563Z,39.58
2023-06-04T11:56:57.037Z,40.44
2023-06-04T12:00:00.073Z,39.59
2023-06-04T12:03:04.438Z,34.66
2023-06-04T12:06:17.201Z,36.96
2023-06-04T12:09:24.696Z,39.40
2023-06-04T12:12:27.687Z,36.92
2023-06-04T12:15:30.616Z,40.88
2023-06-04T12:18:34.128Z,39.86
2023-06-04T12:21:38.069Z,37.26
2023-06-04T12:24:54.502Z,39.49
2023-06-04T12:27:57.647Z,40.23
2023-06-04T12:31:00.927Z,37.54
2023-06-04T12:34:03.761Z,40.76
2023-06-04T12:37:07.665Z,43.27
2023-06-04T12:40:11.086Z,41.58
2023-06-04T12:43:14.276Z,40.74
2023-06-04T12:46:17.138Z,40.59
2023-06-04T12:49:20.514Z,43.44
2023-06-04T12:52:23.371Z,40.64
2023-06-04T12:55:28.305Z,38.11
2023-06-04T12:58:31.459Z,39.10
2023-06-04T13:01:34.688Z,40.28
2023-06-04T13:04:37.502Z,38.09
2023-06-04T13:07:41.418Z,39.26
2023-06-04T13:10:44.161Z,43.08
2023-06-04T13:13:47.352Z,42.37
2023-06-04T13:16:52.709Z,40.94
2023-06-04T13:19:57.126Z,40.89
2023-06-04T13:22:59.858Z,40.29
2023-06-04T13:26:02.928Z,41.11
2023-06-04T13:29:06.064Z,39.41
2023-06-04T13:32:09.153Z,42.55
2023-06-04T13:35:11.883Z,39.62
2023-06-04T13:38:14.934Z,37.39
2023-06-04T13:41:17.751Z,40.07
2023-06-04T13:44:27.362Z,41.09
2023-06-04T13:47:30.315Z,39.76
2023-06-04T13:50:34.441Z,44.51
2023-06-04T13:53:37.198Z,38.95
2023-06-04T13:56:40.652Z,38.07
2023-06-04T13:59:43.390Z,40.80
2023-06-04T14:02:46.559Z,42.86
2023-06-04T14:05:49.802Z,40.48
2023-06-04T14:08:52.527Z,41.99
2023-06-04T14:11:56.817Z,40.54
2023-06-04T14:14:59.808Z,43.02
2023-06-04T14:18:03.242Z,42.83
2023-06-04T14:21:06.295Z,44.68
2023-06-04T14:24:09.939Z,47.37
2023-06-04T15:47:01.016Z,50.80
2023-06-04T15:50:04.845Z,52.30
2023-06-04T15:53:07.612Z,53.69
2023-06-04T15:56:10.808Z,54.03
2023-06-04T15:59:13.549Z,53.52
2023-06-04T16:02:16.587Z,54.06
2023-06-04T16:05:19.913Z,53.92
2023-06-04T16:08:22.614Z,54.84
2023-06-04T16:11:26.919Z,57.45
2023-06-04T16:14:29.692Z,59.79
2023-06-04T16:17:33.086Z,62.02
2023-06-04T16:20:35.911Z,61.58
2023-06-04T16:23:38.976Z,64.04
2023-06-04T16:26:41.797Z,63.88
2023-06-04T16:29:44.819Z,63.55
2023-06-04T16:32:47.841Z,65.29
2023-06-04T16:35:50.918Z,63.56
2023-06-04T16:38:54.355Z,62.25
2023-06-04T16:42:01.923Z,63.92
2023-06-04T16:45:05.096Z,62.02
2023-06-04T16:48:08.358Z,64.74
2023-06-04T16:51:11.963Z,61.83
2023-06-04T16:54:15.125Z,65.04
2023-06-04T16:57:18.767Z,65.82
2023-06-04T17:00:26.684Z,65.73
2023-06-04T17:03:30.236Z,67.40
2023-06-04T17:06:33.238Z,67.04
2023-06-04T17:09:36.039Z,67.45
2023-06-04T17:12:39.396Z,67.41
2023-06-04T17:15:42.180Z,69.32
2023-06-04T17:18:45.437Z,70.15
2023-06-04T17:21:48.458Z,71.21
2023-06-04T17:24:51.892Z,70.79
2023-06-04T17:27:55.278Z,74.03
2023-06-04T17:30:58.525Z,74.63
2023-06-04T17:34:01.496Z,74.07
2023-06-04T17:37:04.998Z,75.11
2023-06-04T17:40:08.338Z,73.98
2023-06-04T17:43:11.679Z,76.05
2023-06-04T17:46:14.684Z,76.21
2023-06-04T17:49:18.176Z,77.00
2023-06-04T17:52:21.336Z,79.14
2023-06-04T17:55:27.442Z,78.66
2023-06-04T17:58:31.347Z,78.32
2023-06-04T18:01:37.991Z,77.67
2023-06-04T18:04:41.478Z,78.62
2023-06-04T18:07:46.516Z,79.48
2023-06-04T18:10:50.014Z,80.71
2023-06-04T18:13:53.244Z,81.61
2023-06-04T18:16:56.706Z,82.85
2023-06-04T18:20:00.324Z,82.89
2023-06-04T18:23:05.721Z,80.99
2023-06-04T18:26:09.139Z,79.41
2023-06-04T18:29:12.938Z,83.48
2023-06-04T18:32:17.043Z,83.02
2023-06-04T18:35:20.641Z,84.66
2023-06-04T18:38:23.946Z,82.12
2023-06-04T18:41:27.497Z,83.10
2023-06-04T18:44:30.734Z,84.25
2023-06-04T19:50:28.051Z,100.00
2023-06-04T19:53:31.714Z,100.00
2023-06-04T19:56:34.947Z,100.00
2023-06-04T19:59:44.197Z,100.00
2023-06-04T20:02:47.608Z,100.00
2023-06-04T20:05:51.196Z,100.00
2023-06-04T20:08:54.030Z,100.00
2023-06-04T20:11:57.202Z,100.00
2023-06-04T20:15:00.126Z,100.00
2023-06-04T20:18:03.472Z,100.00
2023-06-04T20:21:06.520Z,100.00
2023-06-04T20:24:09.913Z,100.00
2023-06-04T20:27:14.115Z,100.00
2023-06-04T20:30:17.349Z,100.00
2023-06-04T20:33:20.120Z,100.00
2023-06-04T20:36:26.573Z,100.00
2023-06-04T20:39:38.437Z,100.00
2023-06-04T20:42:42.166Z,100.00
2023-06-04T20:45:45.060Z,100.00
2023-06-04T20:48:48.320Z,100.00
2023-06-04T20:51:51.069Z,100.00
2023-06-04T20:54:54.220Z,100.00
2023-06-04T20:57:57.372Z,100.00
2023-06-04T21:01:00.532Z,100.00
2023-06-04T21:04:04.416Z,100.00
2023-06-04T21:07:07.835Z,100.00
2023-06-04T21:10:10.946Z,100.00
2023-06-04T21:13:14.355Z,100.00
2023-06-04T21:16:17.228Z,100.00
2023-06-04T21:19:20.420Z,100.00
2023-06-04T21:22:23.232Z,100.00
2023-06-04T21:25:26.228Z,100.00
2023-06-04T21:28:28.920Z,100.00
2023-06-04T21:31:31.978Z,100.00
2023-06-04T21:34:34.802Z,100.00
2023-06-04T21:37:37.875Z,100.00
2023-06-04T21:40:40.676Z,100.00
2023-06-04T21:43:44.247Z,100.00
2023-06-04T21:46:47.229Z,100.00
2023-06-04T21:49:50.518Z,100.00
2023-06-04T21:52:53.297Z,100.00
2023-06-04T21:55:58.002Z,100.00
2023-06-04T21:59:00.755Z,100.00
2023-06-04T22:02:04.438Z,100.00
2023-06-04T22:05:07.908Z,100.00
2023-06-04T22:08:10.690Z,100.00
2023-06-04T22:11:13.916Z,100.00
2023-06-04T22:14:16.681Z,100.00
2023-06-04T22:17:19.916Z,100.00
2023-06-04T22:20:22.663Z,100.00
2023-06-04T22:23:25.871Z,100.00
2023-06-04T22:26:37.327Z,100.00
2023-06-04T22:29:42.099Z,100.00
2023-06-04T22:32:45.044Z,100.00
2023-06-04T22:35:48.405Z,100.00
2023-06-04T22:38:51.471Z,100.00
2023-06-04T22:41:54.563Z,100.00
2023-06-04T22:44:57.313Z,100.00
2023-06-04T22:48:00.669Z,100.00
